Rhododendron Park, Washington
Current Conditions -  °F | °C
As of 11:38 PM on Wednesday 17 Dec 2014 (Local Time) from KTCM Reporting Station
Overcast Overcast  
Wind Chill: 43°   Ceiling: 1100
Heat Index: 43°   Visibility: 7mi
Dew Point: 43°   Wind: 0mph
Humidity: 100%   Direction: NA
Pressure: 29.93"   Gusts: NA
Location:  47.1874°N, 122.164°W
Report Text: KTCM 180738Z AUTO 00000KT 7SM FEW006 BKN011 BKN022 OVC032 06/06 A2993 RMK AO2 RAE05DZB05E08RAB08E09RAB11E13DZB13E19RAB19E28DZB28E38 CIG 010V025 BKN011 V SCT $
Loading
Personal Weather Stations






























Interactive Weather Map New forecast layout! Learn more

10-Day Weather Forecast

Advertisements
Track Severe Weather on mobile